sensor_id;sensor_type;location;lat;lon;timestamp;temperature;humidity
84389;DHT22;74589;48.846;2.382;2024-01-15T00:00:50;5.20;6.80
84389;DHT22;74589;48.846;2.382;2024-01-15T00:03:15;5.20;7.20
84389;DHT22;74589;48.846;2.382;2024-01-15T00:05:41;5.40;6.90
84389;DHT22;74589;48.846;2.382;2024-01-15T00:08:07;5.60;6.70
84389;DHT22;74589;48.846;2.382;2024-01-15T00:10:32;5.60;6.40
84389;DHT22;74589;48.846;2.382;2024-01-15T00:12:58;5.70;6.40
84389;DHT22;74589;48.846;2.382;2024-01-15T00:15:25;5.70;6.10
84389;DHT22;74589;48.846;2.382;2024-01-15T00:17:52;5.60;6.80
84389;DHT22;74589;48.846;2.382;2024-01-15T00:20:17;5.50;7.00
84389;DHT22;74589;48.846;2.382;2024-01-15T00:22:43;5.70;6.80
84389;DHT22;74589;48.846;2.382;2024-01-15T00:25:09;5.80;6.50
84389;DHT22;74589;48.846;2.382;2024-01-15T00:27:34;5.70;6.60
84389;DHT22;74589;48.846;2.382;2024-01-15T00:30:00;5.60;6.60
84389;DHT22;74589;48.846;2.382;2024-01-15T00:32:26;5.70;7.40
84389;DHT22;74589;48.846;2.382;2024-01-15T00:34:51;5.70;6.60
84389;DHT22;74589;48.846;2.382;2024-01-15T00:37:17;5.70;6.80
84389;DHT22;74589;48.846;2.382;2024-01-15T00:39:43;5.80;7.00
84389;DHT22;74589;48.846;2.382;2024-01-15T00:42:08;5.90;6.90
84389;DHT22;74589;48.846;2.382;2024-01-15T00:44:34;5.80;6.40
84389;DHT22;74589;48.846;2.382;2024-01-15T00:46:59;5.80;6.60
84389;DHT22;74589;48.846;2.382;2024-01-15T00:49:27;5.70;6.50
84389;DHT22;74589;48.846;2.382;2024-01-15T00:51:52;5.60;6.70
84389;DHT22;74589;48.846;2.382;2024-01-15T00:54:18;5.60;7.00
84389;DHT22;74589;48.846;2.382;2024-01-15T00:56:44;5.40;7.00
84389;DHT22;74589;48.846;2.382;2024-01-15T00:59:09;5.50;7.40
84389;DHT22;74589;48.846;2.382;2024-01-15T01:01:36;5.50;7.60
84389;DHT22;74589;48.846;2.382;2024-01-15T01:04:03;5.50;7.10
84389;DHT22;74589;48.846;2.382;2024-01-15T01:06:29;5.50;7.20
84389;DHT22;74589;48.846;2.382;2024-01-15T01:08:54;5.40;7.30
84389;DHT22;74589;48.846;2.382;2024-01-15T01:11:20;5.50;7.60
84389;DHT22;74589;48.846;2.382;2024-01-15T01:13:46;5.70;7.10
84389;DHT22;74589;48.846;2.382;2024-01-15T01:16:11;5.60;7.60
84389;DHT22;74589;48.846;2.382;2024-01-15T01:18:37;5.70;7.10
84389;DHT22;74589;48.846;2.382;2024-01-15T01:21:03;5.60;7.10
84389;DHT22;74589;48.846;2.382;2024-01-15T01:23:28;5.50;7.30
84389;DHT22;74589;48.846;2.382;2024-01-15T01:25:54;5.50;7.50
84389;DHT22;74589;48.846;2.382;2024-01-15T01:28:20;5.50;7.60
84389;DHT22;74589;48.846;2.382;2024-01-15T01:30:46;5.40;7.50
84389;DHT22;74589;48.846;2.382;2024-01-15T01:33:11;5.50;7.40
84389;DHT22;74589;48.846;2.382;2024-01-15T01:35:37;5.40;7.20
84389;DHT22;74589;48.846;2.382;2024-01-15T01:38:03;5.30;7.60
84389;DHT22;74589;48.846;2.382;2024-01-15T01:40:28;5.30;7.60
84389;DHT22;74589;48.846;2.382;2024-01-15T01:42:54;5.40;7.60
84389;DHT22;74589;48.846;2.382;2024-01-15T01:45:19;5.60;6.50
84389;DHT22;74589;48.846;2.382;2024-01-15T01:47:45;5.50;7.20
84389;DHT22;74589;48.846;2.382;2024-01-15T01:50:12;5.40;7.60
84389;DHT22;74589;48.846;2.382;2024-01-15T01:52:38;5.40;7.40
84389;DHT22;74589;48.846;2.382;2024-01-15T01:55:04;5.30;7.80
84389;DHT22;74589;48.846;2.382;2024-01-15T01:57:32;5.50;7.90
84389;DHT22;74589;48.846;2.382;2024-01-15T01:59:59;5.40;7.70
84389;DHT22;74589;48.846;2.382;2024-01-15T02:02:25;5.40;7.40
84389;DHT22;74589;48.846;2.382;2024-01-15T02:04:51;5.30;7.70
84389;DHT22;74589;48.846;2.382;2024-01-15T02:07:16;5.30;8.10
84389;DHT22;74589;48.846;2.382;2024-01-15T02:09:44;5.30;7.90
84389;DHT22;74589;48.846;2.382;2024-01-15T02:12:10;5.40;7.90
84389;DHT22;74589;48.846;2.382;2024-01-15T02:14:36;5.40;7.70
84389;DHT22;74589;48.846;2.382;2024-01-15T02:17:02;5.20;8.10
84389;DHT22;74589;48.846;2.382;2024-01-15T02:19:28;5.30;8.00
84389;DHT22;74589;48.846;2.382;2024-01-15T02:21:53;5.40;8.00
84389;DHT22;74589;48.846;2.382;2024-01-15T02:24:19;5.30;8.20
84389;DHT22;74589;48.846;2.382;2024-01-15T02:26:44;5.40;8.00
84389;DHT22;74589;48.846;2.382;2024-01-15T02:29:11;5.50;7.80
84389;DHT22;74589;48.846;2.382;2024-01-15T02:31:38;5.60;7.40
84389;DHT22;74589;48.846;2.382;2024-01-15T02:34:03;5.40;7.80
84389;DHT22;74589;48.846;2.382;2024-01-15T02:36:29;5.50;8.10
84389;DHT22;74589;48.846;2.382;2024-01-15T02:38:54;5.50;8.20
84389;DHT22;74589;48.846;2.382;2024-01-15T02:41:20;5.60;7.90
84389;DHT22;74589;48.846;2.382;2024-01-15T02:43:46;5.50;7.60
84389;DHT22;74589;48.846;2.382;2024-01-15T02:46:11;5.50;8.30
84389;DHT22;74589;48.846;2.382;2024-01-15T02:48:37;5.60;7.60
84389;DHT22;74589;48.846;2.382;2024-01-15T02:51:03;5.60;7.60
84389;DHT22;74589;48.846;2.382;2024-01-15T02:53:28;5.70;7.30
84389;DHT22;74589;48.846;2.382;2024-01-15T02:55:54;5.70;7.80
84389;DHT22;74589;48.846;2.382;2024-01-15T02:58:20;5.80;7.20
84389;DHT22;74589;48.846;2.382;2024-01-15T03:00:46;5.60;7.50
84389;DHT22;74589;48.846;2.382;2024-01-15T03:03:12;5.70;7.40
84389;DHT22;74589;48.846;2.382;2024-01-15T03:05:38;5.70;7.50
84389;DHT22;74589;48.846;2.382;2024-01-15T03:08:04;5.80;7.40
84389;DHT22;74589;48.846;2.382;2024-01-15T03:10:29;5.80;7.40
84389;DHT22;74589;48.846;2.382;2024-01-15T03:12:55;5.80;7.60
84389;DHT22;74589;48.846;2.382;2024-01-15T03:15:21;5.80;7.80
84389;DHT22;74589;48.846;2.382;2024-01-15T03:17:46;5.80;7.80
84389;DHT22;74589;48.846;2.382;2024-01-15T03:20:12;5.90;7.70
84389;DHT22;74589;48.846;2.382;2024-01-15T03:22:38;6.00;7.70
84389;DHT22;74589;48.846;2.382;2024-01-15T03:25:04;6.10;7.40
84389;DHT22;74589;48.846;2.382;2024-01-15T03:27:30;6.00;7.60
84389;DHT22;74589;48.846;2.382;2024-01-15T03:29:55;6.10;7.70
84389;DHT22;74589;48.846;2.382;2024-01-15T03:32:21;6.10;7.70
84389;DHT22;74589;48.846;2.382;2024-01-15T03:34:47;6.10;7.80
84389;DHT22;74589;48.846;2.382;2024-01-15T03:37:15;6.00;8.10
84389;DHT22;74589;48.846;2.382;2024-01-15T03:39:41;6.10;8.30
84389;DHT22;74589;48.846;2.382;2024-01-15T03:42:06;6.30;8.10
84389;DHT22;74589;48.846;2.382;2024-01-15T03:44:32;6.30;7.80
84389;DHT22;74589;48.846;2.382;2024-01-15T03:46:58;6.30;8.00
84389;DHT22;74589;48.846;2.382;2024-01-15T03:49:24;6.40;7.70
84389;DHT22;74589;48.846;2.382;2024-01-15T03:51:49;6.40;8.00
84389;DHT22;74589;48.846;2.382;2024-01-15T03:54:15;6.40;8.00
84389;DHT22;74589;48.846;2.382;2024-01-15T03:56:41;6.40;8.00
84389;DHT22;74589;48.846;2.382;2024-01-15T03:59:06;6.40;8.10
84389;DHT22;74589;48.846;2.382;2024-01-15T04:01:35;6.40;8.30
84389;DHT22;74589;48.846;2.382;2024-01-15T04:04:00;6.30;8.80
84389;DHT22;74589;48.846;2.382;2024-01-15T04:06:26;6.40;8.80
84389;DHT22;74589;48.846;2.382;2024-01-15T04:08:51;6.40;8.80
84389;DHT22;74589;48.846;2.382;2024-01-15T04:11:17;6.40;8.60
84389;DHT22;74589;48.846;2.382;2024-01-15T04:13:43;6.60;8.10
84389;DHT22;74589;48.846;2.382;2024-01-15T04:16:08;6.50;8.60
84389;DHT22;74589;48.846;2.382;2024-01-15T04:18:34;6.50;8.90
84389;DHT22;74589;48.846;2.382;2024-01-15T04:21:00;6.50;8.90
84389;DHT22;74589;48.846;2.382;2024-01-15T04:23:25;6.50;9.20
84389;DHT22;74589;48.846;2.382;2024-01-15T04:25:51;6.60;9.20
84389;DHT22;74589;48.846;2.382;2024-01-15T04:28:16;6.50;9.20
84389;DHT22;74589;48.846;2.382;2024-01-15T04:30:42;6.60;9.00
84389;DHT22;74589;48.846;2.382;2024-01-15T04:33:08;6.50;8.80
84389;DHT22;74589;48.846;2.382;2024-01-15T04:35:34;6.70;8.70
84389;DHT22;74589;48.846;2.382;2024-01-15T04:38:00;6.80;8.50
84389;DHT22;74589;48.846;2.382;2024-01-15T04:40:25;6.70;8.70
84389;DHT22;74589;48.846;2.382;2024-01-15T04:42:53;6.70;9.00
84389;DHT22;74589;48.846;2.382;2024-01-15T04:45:19;6.50;9.20
84389;DHT22;74589;48.846;2.382;2024-01-15T04:47:48;6.40;9.70
84389;DHT22;74589;48.846;2.382;2024-01-15T04:50:14;6.50;9.60
84389;DHT22;74589;48.846;2.382;2024-01-15T04:52:39;6.50;9.70
84389;DHT22;74589;48.846;2.382;2024-01-15T04:55:05;6.60;9.30
84389;DHT22;74589;48.846;2.382;2024-01-15T04:57:31;6.70;9.20
84389;DHT22;74589;48.846;2.382;2024-01-15T04:59:56;6.80;8.50
84389;DHT22;74589;48.846;2.382;2024-01-15T05:02:22;6.70;8.70
84389;DHT22;74589;48.846;2.382;2024-01-15T05:04:48;6.80;8.80
84389;DHT22;74589;48.846;2.382;2024-01-15T05:07:13;6.70;9.00
84389;DHT22;74589;48.846;2.382;2024-01-15T05:09:39;6.60;9.20
84389;DHT22;74589;48.846;2.382;2024-01-15T05:12:04;6.50;9.70
84389;DHT22;74589;48.846;2.382;2024-01-15T05:14:30;6.50;10.10
84389;DHT22;74589;48.846;2.382;2024-01-15T05:16:56;6.70;9.70
84389;DHT22;74589;48.846;2.382;2024-01-15T05:19:21;6.70;9.50
84389;DHT22;74589;48.846;2.382;2024-01-15T05:21:47;6.60;10.40
84389;DHT22;74589;48.846;2.382;2024-01-15T05:24:12;6.70;10.50
84389;DHT22;74589;48.846;2.382;2024-01-15T05:26:38;6.60;10.30
84389;DHT22;74589;48.846;2.382;2024-01-15T05:29:04;6.50;10.60
84389;DHT22;74589;48.846;2.382;2024-01-15T05:31:30;6.40;11.00
84389;DHT22;74589;48.846;2.382;2024-01-15T05:33:55;6.50;11.50
84389;DHT22;74589;48.846;2.382;2024-01-15T05:36:21;6.50;11.20
84389;DHT22;74589;48.846;2.382;2024-01-15T05:38:47;6.50;11.10
84389;DHT22;74589;48.846;2.382;2024-01-15T05:41:13;6.70;10.60
84389;DHT22;74589;48.846;2.382;2024-01-15T05:43:39;6.90;9.90
84389;DHT22;74589;48.846;2.382;2024-01-15T05:46:05;7.00;9.30
84389;DHT22;74589;48.846;2.382;2024-01-15T05:48:30;6.90;8.90
84389;DHT22;74589;48.846;2.382;2024-01-15T05:50:56;6.80;9.80
84389;DHT22;74589;48.846;2.382;2024-01-15T05:53:21;6.70;10.60
84389;DHT22;74589;48.846;2.382;2024-01-15T05:55:47;6.70;10.50
84389;DHT22;74589;48.846;2.382;2024-01-15T05:58:13;6.50;10.90
84389;DHT22;74589;48.846;2.382;2024-01-15T06:00:39;6.70;11.20
84389;DHT22;74589;48.846;2.382;2024-01-15T06:03:05;6.80;10.20
84389;DHT22;74589;48.846;2.382;2024-01-15T06:05:31;6.80;10.20
84389;DHT22;74589;48.846;2.382;2024-01-15T06:07:56;6.70;10.60
84389;DHT22;74589;48.846;2.382;2024-01-15T06:10:22;6.60;10.60
84389;DHT22;74589;48.846;2.382;2024-01-15T06:12:48;6.60;10.90
84389;DHT22;74589;48.846;2.382;2024-01-15T06:15:14;6.60;11.00
84389;DHT22;74589;48.846;2.382;2024-01-15T06:17:41;6.60;11.40
84389;DHT22;74589;48.846;2.382;2024-01-15T06:20:07;6.80;10.90
84389;DHT22;74589;48.846;2.382;2024-01-15T06:22:34;6.70;10.80
84389;DHT22;74589;48.846;2.382;2024-01-15T06:25:02;6.70;10.70
84389;DHT22;74589;48.846;2.382;2024-01-15T06:27:28;6.70;11.30
84389;DHT22;74589;48.846;2.382;2024-01-15T06:29:54;6.70;11.20
84389;DHT22;74589;48.846;2.382;2024-01-15T06:32:21;6.80;11.00
84389;DHT22;74589;48.846;2.382;2024-01-15T06:34:47;6.80;11.00
84389;DHT22;74589;48.846;2.382;2024-01-15T06:37:12;6.80;10.90
84389;DHT22;74589;48.846;2.382;2024-01-15T06:39:38;6.90;11.10
84389;DHT22;74589;48.846;2.382;2024-01-15T06:42:04;7.00;10.80
84389;DHT22;74589;48.846;2.382;2024-01-15T06:44:30;7.10;10.60
84389;DHT22;74589;48.846;2.382;2024-01-15T06:46:55;7.20;10.30
84389;DHT22;74589;48.846;2.382;2024-01-15T06:49:23;7.20;10.20
84389;DHT22;74589;48.846;2.382;2024-01-15T06:51:48;7.20;9.70
84389;DHT22;74589;48.846;2.382;2024-01-15T06:54:14;7.30;9.80
84389;DHT22;74589;48.846;2.382;2024-01-15T06:56:40;7.40;9.20
84389;DHT22;74589;48.846;2.382;2024-01-15T06:59:05;7.40;9.40
84389;DHT22;74589;48.846;2.382;2024-01-15T07:01:31;7.20;9.70
84389;DHT22;74589;48.846;2.382;2024-01-15T07:03:56;7.20;10.30
84389;DHT22;74589;48.846;2.382;2024-01-15T07:06:22;7.10;10.60
84389;DHT22;74589;48.846;2.382;2024-01-15T07:08:49;7.10;10.40
84389;DHT22;74589;48.846;2.382;2024-01-15T07:11:15;7.10;10.30
84389;DHT22;74589;48.846;2.382;2024-01-15T07:13:41;7.10;10.50
84389;DHT22;74589;48.846;2.382;2024-01-15T07:16:06;7.00;10.90
84389;DHT22;74589;48.846;2.382;2024-01-15T07:18:32;7.20;10.40
84389;DHT22;74589;48.846;2.382;2024-01-15T07:20:58;7.30;10.10
84389;DHT22;74589;48.846;2.382;2024-01-15T07:23:24;7.20;10.00
84389;DHT22;74589;48.846;2.382;2024-01-15T07:25:50;7.30;9.70
84389;DHT22;74589;48.846;2.382;2024-01-15T07:28:15;7.20;10.10
84389;DHT22;74589;48.846;2.382;2024-01-15T07:30:41;7.20;10.10
84389;DHT22;74589;48.846;2.382;2024-01-15T07:33:07;7.20;10.10
84389;DHT22;74589;48.846;2.382;2024-01-15T07:35:33;7.30;10.00
84389;DHT22;74589;48.846;2.382;2024-01-15T07:37:58;7.30;9.40
84389;DHT22;74589;48.846;2.382;2024-01-15T07:40:24;7.30;9.70
84389;DHT22;74589;48.846;2.382;2024-01-15T07:42:50;7.30;9.80
84389;DHT22;74589;48.846;2.382;2024-01-15T07:45:16;7.40;9.40
84389;DHT22;74589;48.846;2.382;2024-01-15T07:47:42;7.20;9.90
84389;DHT22;74589;48.846;2.382;2024-01-15T07:50:08;7.30;10.10
84389;DHT22;74589;48.846;2.382;2024-01-15T07:52:33;7.10;10.10
84389;DHT22;74589;48.846;2.382;2024-01-15T07:54:59;7.30;9.70
84389;DHT22;74589;48.846;2.382;2024-01-15T07:57:29;7.20;9.80
84389;DHT22;74589;48.846;2.382;2024-01-15T07:59:54;7.20;10.00
84389;DHT22;74589;48.846;2.382;2024-01-15T08:02:20;7.40;9.00
84389;DHT22;74589;48.846;2.382;2024-01-15T08:04:47;7.30;9.60
84389;DHT22;74589;48.846;2.382;2024-01-15T08:07:12;7.20;9.70
84389;DHT22;74589;48.846;2.382;2024-01-15T08:09:38;7.30;9.90
84389;DHT22;74589;48.846;2.382;2024-01-15T08:12:04;7.40;9.70
84389;DHT22;74589;48.846;2.382;2024-01-15T08:14:31;7.60;8.20
84389;DHT22;74589;48.846;2.382;2024-01-15T08:16:57;7.40;8.90
84389;DHT22;74589;48.846;2.382;2024-01-15T08:19:22;7.40;9.10
84389;DHT22;74589;48.846;2.382;2024-01-15T08:21:49;7.40;9.10
84389;DHT22;74589;48.846;2.382;2024-01-15T08:24:15;7.50;8.70
84389;DHT22;74589;48.846;2.382;2024-01-15T08:26:41;7.40;8.60
84389;DHT22;74589;48.846;2.382;2024-01-15T08:29:06;7.40;8.60
84389;DHT22;74589;48.846;2.382;2024-01-15T08:31:32;7.30;9.00
84389;DHT22;74589;48.846;2.382;2024-01-15T08:33:58;7.20;9.00
84389;DHT22;74589;48.846;2.382;2024-01-15T08:36:25;7.30;8.70
84389;DHT22;74589;48.846;2.382;2024-01-15T08:38:50;7.30;8.70
84389;DHT22;74589;48.846;2.382;2024-01-15T08:41:16;7.40;8.50
84389;DHT22;74589;48.846;2.382;2024-01-15T08:43:42;7.40;8.30
84389;DHT22;74589;48.846;2.382;2024-01-15T08:46:08;7.40;7.80
84389;DHT22;74589;48.846;2.382;2024-01-15T08:48:33;7.10;9.00
84389;DHT22;74589;48.846;2.382;2024-01-15T08:50:59;7.20;8.60
84389;DHT22;74589;48.846;2.382;2024-01-15T08:53:24;7.20;8.70
84389;DHT22;74589;48.846;2.382;2024-01-15T08:55:51;7.10;9.20
84389;DHT22;74589;48.846;2.382;2024-01-15T08:58:16;7.20;9.20
84389;DHT22;74589;48.846;2.382;2024-01-15T09:00:43;7.30;9.30
84389;DHT22;74589;48.846;2.382;2024-01-15T09:03:08;7.50;7.90
84389;DHT22;74589;48.846;2.382;2024-01-15T09:05:34;7.40;7.60
84389;DHT22;74589;48.846;2.382;2024-01-15T09:08:00;7.30;7.80
84389;DHT22;74589;48.846;2.382;2024-01-15T09:10:26;7.50;6.90
84389;DHT22;74589;48.846;2.382;2024-01-15T09:12:51;7.50;7.10
84389;DHT22;74589;48.846;2.382;2024-01-15T09:15:17;7.50;6.90
84389;DHT22;74589;48.846;2.382;2024-01-15T09:17:43;7.60;6.80
84389;DHT22;74589;48.846;2.382;2024-01-15T09:20:09;7.50;6.80
84389;DHT22;74589;48.846;2.382;2024-01-15T09:22:35;7.70;6.10
84389;DHT22;74589;48.846;2.382;2024-01-15T09:25:01;7.80;5.60
84389;DHT22;74589;48.846;2.382;2024-01-15T09:27:26;7.80;5.40
84389;DHT22;74589;48.846;2.382;2024-01-15T09:29:53;7.70;5.80
84389;DHT22;74589;48.846;2.382;2024-01-15T09:32:18;7.80;5.70
84389;DHT22;74589;48.846;2.382;2024-01-15T09:34:45;7.90;5.30
84389;DHT22;74589;48.846;2.382;2024-01-15T09:37:12;8.00;4.60
84389;DHT22;74589;48.846;2.382;2024-01-15T09:39:38;7.90;3.80
84389;DHT22;74589;48.846;2.382;2024-01-15T09:42:04;7.60;3.30
84389;DHT22;74589;48.846;2.382;2024-01-15T09:44:31;7.70;4.20
84389;DHT22;74589;48.846;2.382;2024-01-15T09:46:57;7.60;3.90
84389;DHT22;74589;48.846;2.382;2024-01-15T09:49:23;7.60;3.20
84389;DHT22;74589;48.846;2.382;2024-01-15T09:51:49;7.60;2.60
84389;DHT22;74589;48.846;2.382;2024-01-15T09:54:18;7.60;2.30
84389;DHT22;74589;48.846;2.382;2024-01-15T09:56:47;7.70;2.40
84389;DHT22;74589;48.846;2.382;2024-01-15T09:59:17;8.00;1.80
84389;DHT22;74589;48.846;2.382;2024-01-15T10:01:44;8.20;1.00
84389;DHT22;74589;48.846;2.382;2024-01-15T10:04:13;8.30;1.00
84389;DHT22;74589;48.846;2.382;2024-01-15T10:06:40;8.50;1.00
84389;DHT22;74589;48.846;2.382;2024-01-15T10:09:12;8.50;1.00
84389;DHT22;74589;48.846;2.382;2024-01-15T10:11:41;8.40;1.00
84389;DHT22;74589;48.846;2.382;2024-01-15T10:14:08;8.20;1.00
84389;DHT22;74589;48.846;2.382;2024-01-15T10:16:34;8.20;1.00
84389;DHT22;74589;48.846;2.382;2024-01-15T10:18:59;8.30;1.00
84389;DHT22;74589;48.846;2.382;2024-01-15T10:21:25;8.50;1.00
84389;DHT22;74589;48.846;2.382;2024-01-15T10:23:52;8.60;1.00
84389;DHT22;74589;48.846;2.382;2024-01-15T10:26:17;8.70;1.00
84389;DHT22;74589;48.846;2.382;2024-01-15T10:28:43;8.70;1.00
84389;DHT22;74589;48.846;2.382;2024-01-15T10:31:09;8.60;1.00
84389;DHT22;74589;48.846;2.382;2024-01-15T10:33:35;8.70;1.00
84389;DHT22;74589;48.846;2.382;2024-01-15T10:36:01;8.70;1.00
84389;DHT22;74589;48.846;2.382;2024-01-15T10:38:27;8.80;1.00
84389;DHT22;74589;48.846;2.382;2024-01-15T10:40:53;8.90;1.00
84389;DHT22;74589;48.846;2.382;2024-01-15T10:43:20;8.70;1.00
84389;DHT22;74589;48.846;2.382;2024-01-15T10:45:47;8.70;1.00
84389;DHT22;74589;48.846;2.382;2024-01-15T10:48:13;8.80;1.00
84389;DHT22;74589;48.846;2.382;2024-01-15T10:50:40;8.90;1.00
84389;DHT22;74589;48.846;2.382;2024-01-15T10:53:06;9.00;1.00
84389;DHT22;74589;48.846;2.382;2024-01-15T10:55:33;9.10;1.00
84389;DHT22;74589;48.846;2.382;2024-01-15T10:58:01;9.20;1.00
84389;DHT22;74589;48.846;2.382;2024-01-15T11:00:29;9.10;1.00
84389;DHT22;74589;48.846;2.382;2024-01-15T11:02:55;9.30;1.00
84389;DHT22;74589;48.846;2.382;2024-01-15T11:05:24;9.30;1.00
84389;DHT22;74589;48.846;2.382;2024-01-15T11:07:50;9.30;1.00
84389;DHT22;74589;48.846;2.382;2024-01-15T11:10:44;9.40;1.00
84389;DHT22;74589;48.846;2.382;2024-01-15T11:13:19;9.30;1.00
84389;DHT22;74589;48.846;2.382;2024-01-15T11:18:36;9.40;1.00
84389;DHT22;74589;48.846;2.382;2024-01-15T11:23:47;9.10;1.00
84389;DHT22;74589;48.846;2.382;2024-01-15T11:29:05;8.90;1.00
84389;DHT22;74589;48.846;2.382;2024-01-15T11:34:07;8.90;1.00
84389;DHT22;74589;48.846;2.382;2024-01-15T11:41:54;9.10;1.00
84389;DHT22;74589;48.846;2.382;2024-01-15T11:44:21;9.20;1.00
84389;DHT22;74589;48.846;2.382;2024-01-15T11:50:03;9.00;1.00
84389;DHT22;74589;48.846;2.382;2024-01-15T11:52:36;8.90;1.00
84389;DHT22;74589;48.846;2.382;2024-01-15T11:57:51;8.80;1.00
84389;DHT22;74589;48.846;2.382;2024-01-15T12:00:24;8.80;1.00
84389;DHT22;74589;48.846;2.382;2024-01-15T12:02:50;8.90;1.00
84389;DHT22;74589;48.846;2.382;2024-01-15T12:05:18;9.00;1.00
84389;DHT22;74589;48.846;2.382;2024-01-15T12:07:45;8.90;1.00
84389;DHT22;74589;48.846;2.382;2024-01-15T12:10:12;8.80;1.00
84389;DHT22;74589;48.846;2.382;2024-01-15T12:12:58;9.00;1.00
84389;DHT22;74589;48.846;2.382;2024-01-15T12:15:25;9.00;1.00
84389;DHT22;74589;48.846;2.382;2024-01-15T12:17:51;9.00;1.00
84389;DHT22;74589;48.846;2.382;2024-01-15T12:20:18;9.00;1.00
84389;DHT22;74589;48.846;2.382;2024-01-15T12:22:44;8.90;1.00
84389;DHT22;74589;48.846;2.382;2024-01-15T12:25:10;8.80;1.00
84389;DHT22;74589;48.846;2.382;2024-01-15T12:27:36;9.00;1.00
84389;DHT22;74589;48.846;2.382;2024-01-15T12:30:02;9.00;1.00
84389;DHT22;74589;48.846;2.382;2024-01-15T12:32:29;9.00;1.00
84389;DHT22;74589;48.846;2.382;2024-01-15T12:34:55;9.00;1.00
84389;DHT22;74589;48.846;2.382;2024-01-15T12:37:20;9.00;1.00
84389;DHT22;74589;48.846;2.382;2024-01-15T12:39:47;8.90;1.00
84389;DHT22;74589;48.846;2.382;2024-01-15T12:42:16;8.90;1.00
84389;DHT22;74589;48.846;2.382;2024-01-15T12:44:43;8.90;1.00
84389;DHT22;74589;48.846;2.382;2024-01-15T12:47:10;8.90;1.00
84389;DHT22;74589;48.846;2.382;2024-01-15T12:49:37;9.00;1.00
84389;DHT22;74589;48.846;2.382;2024-01-15T12:52:03;9.00;1.00
84389;DHT22;74589;48.846;2.382;2024-01-15T12:54:29;9.00;1.00
84389;DHT22;74589;48.846;2.382;2024-01-15T12:56:54;9.00;1.00
84389;DHT22;74589;48.846;2.382;2024-01-15T12:59:20;9.10;1.00
84389;DHT22;74589;48.846;2.382;2024-01-15T13:01:46;9.10;1.00
84389;DHT22;74589;48.846;2.382;2024-01-15T13:04:20;9.00;1.00
84389;DHT22;74589;48.846;2.382;2024-01-15T13:06:46;9.00;1.00
84389;DHT22;74589;48.846;2.382;2024-01-15T13:09:12;9.00;1.00
84389;DHT22;74589;48.846;2.382;2024-01-15T13:11:38;9.10;1.00
84389;DHT22;74589;48.846;2.382;2024-01-15T13:14:05;9.10;1.00
84389;DHT22;74589;48.846;2.382;2024-01-15T13:16:31;9.10;1.00
84389;DHT22;74589;48.846;2.382;2024-01-15T13:18:56;9.00;1.00
84389;DHT22;74589;48.846;2.382;2024-01-15T13:21:22;8.80;1.00
84389;DHT22;74589;48.846;2.382;2024-01-15T13:23:48;8.80;1.00
84389;DHT22;74589;48.846;2.382;2024-01-15T13:26:14;9.10;1.00
84389;DHT22;74589;48.846;2.382;2024-01-15T13:28:39;9.00;1.00
84389;DHT22;74589;48.846;2.382;2024-01-15T13:31:05;9.00;1.00
84389;DHT22;74589;48.846;2.382;2024-01-15T13:33:31;8.90;1.00
84389;DHT22;74589;48.846;2.382;2024-01-15T13:35:57;9.00;1.00
84389;DHT22;74589;48.846;2.382;2024-01-15T13:38:23;8.90;1.00
84389;DHT22;74589;48.846;2.382;2024-01-15T13:40:49;9.10;1.00
84389;DHT22;74589;48.846;2.382;2024-01-15T13:43:15;9.20;1.00
84389;DHT22;74589;48.846;2.382;2024-01-15T13:45:44;9.20;1.00
84389;DHT22;74589;48.846;2.382;2024-01-15T13:48:09;9.20;1.00
84389;DHT22;74589;48.846;2.382;2024-01-15T13:50:36;9.20;1.00
84389;DHT22;74589;48.846;2.382;2024-01-15T13:53:03;9.30;1.00
84389;DHT22;74589;48.846;2.382;2024-01-15T13:55:29;9.40;1.00
84389;DHT22;74589;48.846;2.382;2024-01-15T13:57:55;9.40;1.00
84389;DHT22;74589;48.846;2.382;2024-01-15T14:00:21;9.40;1.00
84389;DHT22;74589;48.846;2.382;2024-01-15T14:02:48;9.40;1.00
84389;DHT22;74589;48.846;2.382;2024-01-15T14:05:14;9.60;1.00
84389;DHT22;74589;48.846;2.382;2024-01-15T14:07:40;9.60;1.00
84389;DHT22;74589;48.846;2.382;2024-01-15T14:10:07;9.60;1.00
84389;DHT22;74589;48.846;2.382;2024-01-15T14:12:33;9.70;1.00
84389;DHT22;74589;48.846;2.382;2024-01-15T14:15:00;9.70;1.00
84389;DHT22;74589;48.846;2.382;2024-01-15T14:17:27;9.60;1.00
84389;DHT22;74589;48.846;2.382;2024-01-15T14:19:52;9.60;1.00
84389;DHT22;74589;48.846;2.382;2024-01-15T14:22:18;9.70;1.00
84389;DHT22;74589;48.846;2.382;2024-01-15T14:24:44;9.70;1.00
84389;DHT22;74589;48.846;2.382;2024-01-15T14:27:10;9.80;1.00
84389;DHT22;74589;48.846;2.382;2024-01-15T14:29:35;9.80;1.00
84389;DHT22;74589;48.846;2.382;2024-01-15T14:32:02;9.60;1.00
84389;DHT22;74589;48.846;2.382;2024-01-15T14:34:28;9.60;1.00
84389;DHT22;74589;48.846;2.382;2024-01-15T14:36:53;9.60;1.00
84389;DHT22;74589;48.846;2.382;2024-01-15T14:39:21;9.60;1.00
84389;DHT22;74589;48.846;2.382;2024-01-15T14:41:46;9.60;1.00
84389;DHT22;74589;48.846;2.382;2024-01-15T14:44:12;9.70;1.00
84389;DHT22;74589;48.846;2.382;2024-01-15T14:46:39;9.60;1.00
84389;DHT22;74589;48.846;2.382;2024-01-15T14:49:05;9.50;1.00
84389;DHT22;74589;48.846;2.382;2024-01-15T14:51:31;9.40;1.00
84389;DHT22;74589;48.846;2.382;2024-01-15T14:53:57;9.40;1.00
84389;DHT22;74589;48.846;2.382;2024-01-15T14:56:22;9.40;1.00
84389;DHT22;74589;48.846;2.382;2024-01-15T14:58:48;9.50;1.00
84389;DHT22;74589;48.846;2.382;2024-01-15T15:01:14;9.50;1.00
84389;DHT22;74589;48.846;2.382;2024-01-15T15:03:40;9.60;1.00
84389;DHT22;74589;48.846;2.382;2024-01-15T15:06:06;9.60;1.00
84389;DHT22;74589;48.846;2.382;2024-01-15T15:08:35;9.60;1.00
84389;DHT22;74589;48.846;2.382;2024-01-15T15:11:02;9.60;1.00
84389;DHT22;74589;48.846;2.382;2024-01-15T15:13:28;9.60;1.00
84389;DHT22;74589;48.846;2.382;2024-01-15T15:15:53;9.50;1.00
84389;DHT22;74589;48.846;2.382;2024-01-15T15:18:20;9.50;1.00
84389;DHT22;74589;48.846;2.382;2024-01-15T15:20:50;9.50;1.00
84389;DHT22;74589;48.846;2.382;2024-01-15T15:23:16;9.60;1.00
84389;DHT22;74589;48.846;2.382;2024-01-15T15:25:43;9.60;1.00
84389;DHT22;74589;48.846;2.382;2024-01-15T15:28:09;9.60;1.00
84389;DHT22;74589;48.846;2.382;2024-01-15T15:30:37;9.50;1.00
84389;DHT22;74589;48.846;2.382;2024-01-15T15:33:02;9.50;1.00
84389;DHT22;74589;48.846;2.382;2024-01-15T15:35:28;9.50;1.00
84389;DHT22;74589;48.846;2.382;2024-01-15T15:37:54;9.40;1.00
84389;DHT22;74589;48.846;2.382;2024-01-15T15:40:20;9.30;1.00
84389;DHT22;74589;48.846;2.382;2024-01-15T15:42:46;9.30;1.00
84389;DHT22;74589;48.846;2.382;2024-01-15T15:45:12;9.20;1.00
84389;DHT22;74589;48.846;2.382;2024-01-15T15:47:38;9.20;1.00
84389;DHT22;74589;48.846;2.382;2024-01-15T15:50:04;9.20;1.00
84389;DHT22;74589;48.846;2.382;2024-01-15T15:52:31;9.20;1.00
84389;DHT22;74589;48.846;2.382;2024-01-15T15:54:57;9.10;1.00
84389;DHT22;74589;48.846;2.382;2024-01-15T15:57:22;9.10;1.00
84389;DHT22;74589;48.846;2.382;2024-01-15T15:59:49;8.90;1.00
84389;DHT22;74589;48.846;2.382;2024-01-15T16:02:14;8.90;1.00
84389;DHT22;74589;48.846;2.382;2024-01-15T16:04:40;8.80;1.00
84389;DHT22;74589;48.846;2.382;2024-01-15T16:07:06;8.80;1.00
84389;DHT22;74589;48.846;2.382;2024-01-15T16:09:35;8.70;1.00
84389;DHT22;74589;48.846;2.382;2024-01-15T16:12:01;8.80;1.00
84389;DHT22;74589;48.846;2.382;2024-01-15T16:14:28;8.70;1.00